sensor_id;sensor_type;location;lat;lon;timestamp;pressure;altitude;pressure_sealevel;temperature;humidity
68199;BME280;55021;51.554;17.044;2024-01-25T00:14:20;100326.19;;;6.27;96.01
68199;BME280;55021;51.554;17.044;2024-01-25T00:29:23;100349.16;;;6.31;94.87
68199;BME280;55021;51.554;17.044;2024-01-25T00:44:26;100391.63;;;6.18;96.14
68199;BME280;55021;51.554;17.044;2024-01-25T00:59:29;100415.06;;;6.37;92.02
68199;BME280;55021;51.554;17.044;2024-01-25T01:14:32;100399.25;;;6.13;93.29
68199;BME280;55021;51.554;17.044;2024-01-25T01:29:34;100411.13;;;6.10;95.00
68199;BME280;55021;51.554;17.044;2024-01-25T01:44:37;100404.06;;;6.09;95.07
68199;BME280;55021;51.554;17.044;2024-01-25T01:59:40;100407.19;;;6.14;94.60
68199;BME280;55021;51.554;17.044;2024-01-25T02:14:43;100390.34;;;6.22;89.24
68199;BME280;55021;51.554;17.044;2024-01-25T02:29:46;100398.53;;;6.60;83.82
68199;BME280;55021;51.554;17.044;2024-01-25T02:44:49;100391.16;;;6.53;84.23
68199;BME280;55021;51.554;17.044;2024-01-25T02:59:51;100378.69;;;6.52;82.76
68199;BME280;55021;51.554;17.044;2024-01-25T03:14:54;100284.78;;;5.99;83.47
68199;BME280;55021;51.554;17.044;2024-01-25T03:29:57;100392.88;;;6.54;83.49
68199;BME280;55021;51.554;17.044;2024-01-25T03:44:59;100384.97;;;6.22;88.24
68199;BME280;55021;51.554;17.044;2024-01-25T04:00:05;100395.72;;;6.12;89.43
68199;BME280;55021;51.554;17.044;2024-01-25T04:15:08;100315.28;;;5.49;93.87
68199;BME280;55021;51.554;17.044;2024-01-25T04:30:15;100378.72;;;5.82;94.71
68199;BME280;55021;51.554;17.044;2024-01-25T04:45:18;100383.38;;;5.80;94.75
68199;BME280;55021;51.554;17.044;2024-01-25T05:00:21;100387.13;;;5.88;95.04
68199;BME280;55021;51.554;17.044;2024-01-25T05:15:25;100383.56;;;5.88;94.19
68199;BME280;55021;51.554;17.044;2024-01-25T05:30:27;100422.44;;;6.04;93.59
68199;BME280;55021;51.554;17.044;2024-01-25T05:45:30;100427.84;;;6.04;93.02
68199;BME280;55021;51.554;17.044;2024-01-25T06:00:33;100424.84;;;6.38;90.28
68199;BME280;55021;51.554;17.044;2024-01-25T06:15:35;100442.44;;;6.11;91.38
68199;BME280;55021;51.554;17.044;2024-01-25T06:30:37;100474.63;;;5.92;91.37
68199;BME280;55021;51.554;17.044;2024-01-25T06:45:39;100460.66;;;5.98;88.62
68199;BME280;55021;51.554;17.044;2024-01-25T07:00:42;100456.41;;;5.96;85.70
68199;BME280;55021;51.554;17.044;2024-01-25T07:15:44;100511.19;;;6.15;84.63
68199;BME280;55021;51.554;17.044;2024-01-25T07:30:52;100530.47;;;6.21;83.34
68199;BME280;55021;51.554;17.044;2024-01-25T08:01:34;100515.06;;;5.81;83.88
68199;BME280;55021;51.554;17.044;2024-01-25T08:16:38;100573.03;;;6.27;83.37
68199;BME280;55021;51.554;17.044;2024-01-25T08:31:48;100583.19;;;6.23;83.86
68199;BME280;55021;51.554;17.044;2024-01-25T09:02:27;100620.88;;;6.44;81.88
68199;BME280;55021;51.554;17.044;2024-01-25T09:17:29;100666.41;;;6.47;83.04
68199;BME280;55021;51.554;17.044;2024-01-25T09:32:32;100695.59;;;6.31;83.98
68199;BME280;55021;51.554;17.044;2024-01-25T09:47:34;100717.50;;;6.99;80.29
68199;BME280;55021;51.554;17.044;2024-01-25T10:02:36;100741.19;;;6.75;79.96
68199;BME280;55021;51.554;17.044;2024-01-25T10:17:39;100751.56;;;6.59;80.96
68199;BME280;55021;51.554;17.044;2024-01-25T10:32:42;100768.13;;;6.43;83.47
68199;BME280;55021;51.554;17.044;2024-01-25T10:47:44;100785.88;;;6.78;82.23
68199;BME280;55021;51.554;17.044;2024-01-25T11:02:51;100795.69;;;6.36;87.25
68199;BME280;55021;51.554;17.044;2024-01-25T11:17:54;100805.94;;;6.10;89.79
68199;BME280;55021;51.554;17.044;2024-01-25T11:32:56;100796.34;;;6.60;87.46
68199;BME280;55021;51.554;17.044;2024-01-25T11:48:00;100780.72;;;6.74;85.15
68199;BME280;55021;51.554;17.044;2024-01-25T12:03:02;100790.41;;;6.77;82.58
68199;BME280;55021;51.554;17.044;2024-01-25T12:18:06;100801.56;;;6.72;84.54
68199;BME280;55021;51.554;17.044;2024-01-25T12:33:09;100733.97;;;6.44;83.48
68199;BME280;55021;51.554;17.044;2024-01-25T12:48:11;100809.16;;;6.99;83.22
68199;BME280;55021;51.554;17.044;2024-01-25T13:03:14;100833.84;;;6.84;82.33
68199;BME280;55021;51.554;17.044;2024-01-25T13:18:16;100860.91;;;6.82;81.03
68199;BME280;55021;51.554;17.044;2024-01-25T13:33:19;100879.56;;;6.74;80.61
68199;BME280;55021;51.554;17.044;2024-01-25T13:48:21;100879.97;;;6.69;81.40
68199;BME280;55021;51.554;17.044;2024-01-25T14:03:24;100909.50;;;6.49;83.02
68199;BME280;55021;51.554;17.044;2024-01-25T14:18:27;100914.31;;;6.45;82.79
68199;BME280;55021;51.554;17.044;2024-01-25T14:33:30;100937.44;;;6.37;83.44
68199;BME280;55021;51.554;17.044;2024-01-25T14:48:33;100943.81;;;6.36;81.92
68199;BME280;55021;51.554;17.044;2024-01-25T15:03:35;100953.59;;;6.48;84.64
68199;BME280;55021;51.554;17.044;2024-01-25T15:18:39;100967.06;;;6.14;81.51
68199;BME280;55021;51.554;17.044;2024-01-25T15:33:44;100992.13;;;6.04;83.00
68199;BME280;55021;51.554;17.044;2024-01-25T15:48:47;101011.72;;;6.06;82.70
68199;BME280;55021;51.554;17.044;2024-01-25T16:03:49;101041.56;;;6.14;81.81
68199;BME280;55021;51.554;17.044;2024-01-25T16:18:51;101052.34;;;6.14;80.60
68199;BME280;55021;51.554;17.044;2024-01-25T16:33:53;101091.75;;;6.15;81.32
68199;BME280;55021;51.554;17.044;2024-01-25T16:48:56;101111.75;;;6.00;81.83
68199;BME280;55021;51.554;17.044;2024-01-25T17:03:58;101139.66;;;5.99;82.41
68199;BME280;55021;51.554;17.044;2024-01-25T17:19:01;101153.72;;;6.02;82.29
68199;BME280;55021;51.554;17.044;2024-01-25T17:34:05;101181.53;;;6.49;80.46
68199;BME280;55021;51.554;17.044;2024-01-25T17:49:08;101148.97;;;6.06;82.88
68199;BME280;55021;51.554;17.044;2024-01-25T18:04:10;101185.16;;;6.26;81.31
68199;BME280;55021;51.554;17.044;2024-01-25T18:19:12;101205.06;;;5.88;83.56
68199;BME280;55021;51.554;17.044;2024-01-25T18:34:15;101202.34;;;5.65;83.81
68199;BME280;55021;51.554;17.044;2024-01-25T18:49:17;101195.81;;;5.56;84.36
68199;BME280;55021;51.554;17.044;2024-01-25T19:04:21;101189.59;;;5.43;83.25
68199;BME280;55021;51.554;17.044;2024-01-25T19:19:23;101217.22;;;5.57;83.82
68199;BME280;55021;51.554;17.044;2024-01-25T19:34:26;101138.97;;;5.01;83.99
68199;BME280;55021;51.554;17.044;2024-01-25T19:49:28;101219.50;;;5.51;84.64
68199;BME280;55021;51.554;17.044;2024-01-25T20:04:31;101224.28;;;5.22;85.44
68199;BME280;55021;51.554;17.044;2024-01-25T20:19:34;101256.56;;;5.22;84.16
68199;BME280;55021;51.554;17.044;2024-01-25T20:34:37;101195.13;;;4.66;83.91
68199;BME280;55021;51.554;17.044;2024-01-25T20:49:39;101276.63;;;5.04;84.56
68199;BME280;55021;51.554;17.044;2024-01-25T21:04:43;101301.16;;;5.00;84.92
68199;BME280;55021;51.554;17.044;2024-01-25T21:19:47;101302.69;;;5.04;85.25
68199;BME280;55021;51.554;17.044;2024-01-25T21:34:49;101330.41;;;4.77;87.33
68199;BME280;55021;51.554;17.044;2024-01-25T21:49:52;101338.13;;;4.69;87.98
68199;BME280;55021;51.554;17.044;2024-01-25T22:04:55;101330.41;;;4.65;87.65
68199;BME280;55021;51.554;17.044;2024-01-25T22:19:57;101345.34;;;4.95;87.23
68199;BME280;55021;51.554;17.044;2024-01-25T22:35:00;101361.53;;;4.94;87.85
68199;BME280;55021;51.554;17.044;2024-01-25T22:50:02;101371.38;;;4.81;89.51
68199;BME280;55021;51.554;17.044;2024-01-25T23:05:06;101376.94;;;4.65;91.66
68199;BME280;55021;51.554;17.044;2024-01-25T23:20:08;101390.78;;;4.72;92.77
68199;BME280;55021;51.554;17.044;2024-01-25T23:35:11;101395.13;;;5.14;91.40
68199;BME280;55021;51.554;17.044;2024-01-25T23:50:13;101397.22;;;5.61;88.08
